M I D A S
Marine Information and Data Acquisition System
Tripno 2275 of the Zeeleeuw from 2012-03-22 07:52:03 to 2012-03-22 16:22:12
Back to CruiseResearch ActivitiesStationsMapUnderway DataData graphs

EquipmentUnitsComment
TimeDGPSUTC
LatitudeDGPSDM.mWGS84
LongitudeDGPSDM.mWGS84
TemperatureSBE03/SBE38deg celciusITS90
ConductivitySBE21S/mITS90
SalinitySBE21 Practical Salinity Units
ChlorophylAChelsea fluorimeterg/lCalibrated in Aceton
Missing or incorrect values are displayed as -999
Sea surface data collected by the RV Zeeleeuw from 2012-03-22 07:26:42 to 2012-03-22 16:43:41
Time Latitude Longitude Temperature Conductivity Salinity ChlorophylA
2012-03-22 07:27:47 51°13.635 2°56.018 14.7281 0.288077 1.69638 -2.458615
2012-03-22 07:28:46 51°13.635 2°56.018 14.7274 0.288077 1.696411 -2.458615
2012-03-22 07:29:46 51°13.635 2°56.017 14.7238 0.288077 1.696442 -2.458615
2012-03-22 07:30:46 51°13.635 2°56.018 14.7317 0.288077 1.696473 -2.458615
2012-03-22 07:31:47 51°13.636 2°56.016 14.731 0.288077 1.696504 -2.458615
2012-03-22 07:32:47 51°13.636 2°56.017 14.731 0.288077 1.696567 -2.458615
2012-03-22 07:33:47 51°13.635 2°56.018 14.7327 0.288077 1.696598 -2.458615
2012-03-22 07:34:47 51°13.635 2°56.019 14.721 0.287974 1.695989 -2.458615
2012-03-22 07:35:46 51°13.635 2°56.018 14.7335 0.288077 1.696691 -2.458615
2012-03-22 07:36:47 51°13.636 2°56.018 14.7451 0.287974 1.696082 -2.458615
2012-03-22 07:37:46 51°13.637 2°56.019 14.7501 0.287974 1.696113 -2.458615
2012-03-22 07:38:47 51°13.636 2°56.019 14.7491 0.287974 1.696144 -2.458615
2012-03-22 07:39:46 51°13.636 2°56.021 14.7573 0.287974 1.696175 -2.458615
2012-03-22 07:40:46 51°13.636 2°56.021 14.7502 0.287974 1.696238 -2.458615
2012-03-22 07:41:47 51°13.636 2°56.021 14.7536 0.287974 1.696269 -2.458615
2012-03-22 07:42:46 51°13.636 2°56.02 14.761 0.287974 1.696331 -2.458615
2012-03-22 07:43:47 51°13.637 2°56.02 14.7725 0.287974 1.696362 -2.458615
2012-03-22 07:44:46 51°13.636 2°56.019 14.7634 0.287974 1.696394 -2.458615
2012-03-22 07:45:47 51°13.637 2°56.019 14.78 0.287974 1.696425 -2.458615
2012-03-22 07:46:46 51°13.637 2°56.019 14.7758 0.287974 1.696425 -2.458615
2012-03-22 07:47:47 51°13.637 2°56.019 14.7787 0.287974 1.696487 -2.458615
2012-03-22 07:48:46 51°13.636 2°56.019 14.8213 0.287974 1.696518 -2.458615
2012-03-22 07:49:47 51°13.636 2°56.018 14.8126 0.287974 1.696549 -2.458615
2012-03-22 07:50:47 51°13.636 2°56.019 14.8367 0.287974 1.696612 -2.458615
2012-03-22 07:51:46 51°13.635 2°56.019 14.8275 0.287974 1.696674 -2.458615
2012-03-22 07:52:46 51°13.634 2°56.017 14.6802 0.287974 1.696737 -2.458615
2012-03-22 07:53:46 51°13.644 2°55.95 14.8333 0.287974 1.696737 -2.458615
2012-03-22 07:54:46 51°13.667 2°55.857 14.8599 0.287871 1.696127 -2.458615
2012-03-22 07:55:46 51°13.707 2°55.77 14.8594 0.287871 1.696189 -2.458615
2012-03-22 07:56:46 51°13.763 2°55.691 14.8285 0.287871 1.69622 -2.458615
2012-03-22 07:57:46 51°13.83 2°55.63 14.8484 0.287871 1.696314 -2.458615
2012-03-22 07:58:46 51°13.896 2°55.598 14.8431 0.287871 1.696376 -2.458615
2012-03-22 07:59:46 51°13.949 2°55.616 14.8498 0.287871 1.696501 -2.458615
2012-03-22 08:00:46 51°13.98 2°55.655 14.9141 0.287871 1.696532 -2.458615
2012-03-22 08:01:46 51°13.992 2°55.611 14.8068 0.287871 1.696595 -2.458615
2012-03-22 08:02:46 51°14.052 2°55.514 14.6937 0.287871 1.696657 -2.458615
2012-03-22 08:03:46 51°14.159 2°55.4 14.6135 0.287871 1.696688 -2.458615
2012-03-22 08:04:46 51°14.282 2°55.282 14.7405 0.287871 1.696751 -2.458615
2012-03-22 08:05:46 51°14.409 2°55.159 8.7831 1.614234 11.182032 -2.458615
2012-03-22 08:06:45 51°14.547 2°55.015 7.8169 3.195681 29.508003 -2.458615
2012-03-22 08:07:43 51°14.702 2°54.821 7.5909 3.05717 28.805403 -2.458615
2012-03-22 08:08:43 51°14.877 2°54.63 7.4351 3.08324 29.359384 -2.458615
2012-03-22 08:09:43 51°15.061 2°54.469 7.379 3.095861 29.595452 -2.458615
2012-03-22 08:10:43 51°15.253 2°54.366 7.3472 3.093276 29.621542 -2.458615
2012-03-22 08:11:43 51°15.448 2°54.301 7.2956 3.09069 29.669858 -2.458615
2012-03-22 08:12:43 51°15.647 2°54.25 7.2542 3.087484 29.684083 -2.458615
2012-03-22 08:13:43 51°15.844 2°54.223 7.1967 3.087278 29.723939 -2.458615
2012-03-22 08:14:43 51°16.038 2°54.17 7.1601 3.085416 29.751057 -2.458615
2012-03-22 08:15:43 51°16.164 2°54.149 7.131 3.082521 29.754455 -2.458615
2012-03-22 08:16:43 51°16.242 2°54.121 7.1028 3.080038 29.759092 -2.458615
2012-03-22 08:17:43 51°16.274 2°54.159 7.0906 3.07497 29.725717 -2.458615
2012-03-22 08:18:43 51°16.277 2°54.258 7.0712 3.070626 29.699252 -2.458615
2012-03-22 08:19:43 51°16.269 2°54.353 7.0563 3.067419 29.682535 -2.458615
2012-03-22 08:20:43 51°16.243 2°54.347 7.0501 3.065351 29.662007 -2.458615
2012-03-22 08:21:43 51°16.225 2°54.313 7.0535 3.063592 29.655172 -2.458615
2012-03-22 08:22:43 51°16.207 2°54.276 7.0427 3.062351 29.649875 -2.458615
2012-03-22 08:23:43 51°16.188 2°54.239 7.0408 3.06142 29.643905 -2.458615
2012-03-22 08:24:43 51°16.169 2°54.199 7.0361 3.059351 29.624961 -2.458615
2012-03-22 08:25:43 51°16.15 2°54.16 7.0356 3.062144 29.659641 -2.458615
2012-03-22 08:26:43 51°16.132 2°54.12 7.0287 3.063592 29.680739 -2.458615
2012-03-22 08:27:43 51°16.114 2°54.079 7.0291 3.063489 29.68363 -2.458615
2012-03-22 08:28:43 51°16.095 2°54.023 7.0437 3.061317 29.658773 -2.458615
2012-03-22 08:29:43 51°16.101 2°53.939 7.038 3.064937 29.672752 -2.458615
2012-03-22 08:30:43 51°16.175 2°53.858 7.0208 3.06473 29.67693 -2.458615
2012-03-22 08:31:43 51°16.291 2°53.71 6.9971 3.063799 29.680555 -2.458615
2012-03-22 08:32:43 51°16.422 2°53.512 7.0333 3.069178 29.753378 -2.458615
2012-03-22 08:33:43 51°16.556 2°53.314 7.0143 3.086659 29.908507 -2.458615
2012-03-22 08:34:43 51°16.697 2°53.133 6.9663 3.082522 29.890751 -2.458615
2012-03-22 08:35:43 51°16.856 2°52.952 6.9958 3.076006 29.845041 -2.458615
2012-03-22 08:36:43 51°17.01 2°52.744 6.9669 3.081281 29.895979 -2.458615
2012-03-22 08:37:43 51°17.159 2°52.518 6.9539 3.076626 29.867006 -2.458615
2012-03-22 08:38:43 51°17.31 2°52.293 6.9307 3.074351 29.851451 -2.458615
2012-03-22 08:39:43 51°17.469 2°52.085 6.9273 3.071558 29.832756 -2.458615
2012-03-22 08:40:43 51°17.641 2°51.917 6.9288 3.070524 29.82568 -2.458615
2012-03-22 08:41:43 51°17.811 2°51.744 6.9146 3.071144 29.836373 -2.458615
2012-03-22 08:42:43 51°17.975 2°51.549 6.8867 3.068766 29.831786 -2.458615
2012-03-22 08:43:43 51°18.152 2°51.384 6.8573 3.073731 29.902927 -2.458615
2012-03-22 08:44:43 51°18.314 2°51.223 6.7999 3.080041 29.991888 -2.458615
2012-03-22 08:45:43 51°18.416 2°51.079 6.7352 3.089869 30.154857 -2.458615
2012-03-22 08:46:43 51°18.477 2°50.965 6.7328 3.095972 30.272478 -2.458615
2012-03-22 08:47:43 51°18.517 2°51.011 6.7163 3.097421 30.287312 -2.458615
2012-03-22 08:48:43 51°18.485 2°51.043 6.7238 3.09711 30.295488 -2.458615
2012-03-22 08:49:43 51°18.468 2°51.013 6.7234 3.095766 30.276827 -2.458615
2012-03-22 08:50:46 51°18.453 2°50.981 6.7054 3.096076 30.29254 -2.458615
2012-03-22 08:51:44 51°18.437 2°50.95 6.7049 3.095352 30.292949 -2.458615
2012-03-22 08:52:43 51°18.42 2°50.917 6.7035 3.095559 30.295187 -2.458615
2012-03-22 08:53:43 51°18.402 2°50.883 6.7099 3.095662 30.299605 -2.458615
2012-03-22 08:54:43 51°18.383 2°50.849 6.7353 3.095145 30.284116 -2.458615
2012-03-22 08:55:43 51°18.359 2°50.812 6.7076 3.0968 30.288013 -2.458615
2012-03-22 08:56:43 51°18.297 2°50.773 6.7128 3.096387 30.303318 -2.458615
2012-03-22 08:57:43 51°18.211 2°50.816 6.7359 3.096283 30.298075 -2.458615
2012-03-22 08:58:43 51°18.192 2°50.974 6.7517 3.096904 30.292427 -2.458615
2012-03-22 08:59:43 51°18.229 2°51.204 6.7905 3.091628 30.207443 -2.458615
2012-03-22 09:00:43 51°18.282 2°51.484 6.8076 3.085524 30.112071 -2.458615
2012-03-22 09:01:43 51°18.335 2°51.773 6.8225 3.078904 30.02599 -2.458615
2012-03-22 09:02:43 51°18.381 2°52.068 6.8298 3.071663 29.941449 -2.458615
2012-03-22 09:03:43 51°18.432 2°52.362 6.8303 3.067422 29.884415 -2.458615
2012-03-22 09:04:43 51°18.477 2°52.66 6.8308 3.066491 29.871962 -2.458615
2012-03-22 09:05:43 51°18.528 2°52.958 6.8188 3.066387 29.877327 -2.458615
2012-03-22 09:06:43 51°18.579 2°53.256 6.8164 3.066594 29.884416 -2.458615
2012-03-22 09:07:43 51°18.624 2°53.558 6.8222 3.066077 29.880466 -2.458615
2012-03-22 09:08:43 51°18.666 2°53.861 6.8281 3.065974 29.874491 -2.458615
2012-03-22 09:09:43 51°18.704 2°54.164 6.8232 3.065767 29.868214 -2.458615
2012-03-22 09:10:43 51°18.743 2°54.465 6.7925 3.064629 29.859201 -2.458615
2012-03-22 09:11:43 51°18.781 2°54.765 6.8002 3.066284 29.90459 -2.458615
2012-03-22 09:12:43 51°18.819 2°55.058 6.7762 3.069387 29.940479 -2.458615
2012-03-22 09:13:43 51°18.858 2°55.349 6.7767 3.067319 29.921424 -2.458615
2012-03-22 09:14:43 51°18.93 2°55.622 6.765 3.066284 29.915144 -2.458615
2012-03-22 09:15:43 51°18.997 2°55.903 6.7566 3.064526 29.909177 -2.458615
2012-03-22 09:16:43 51°19.066 2°56.182 6.7507 3.062871 29.900259 -2.458615
2012-03-22 09:17:43 51°19.124 2°56.465 6.7608 3.06163 29.886868 -2.458615
2012-03-22 09:18:43 51°19.161 2°56.756 6.7592 3.059871 29.864652 -2.458615
2012-03-22 09:19:43 51°19.223 2°57.03 6.7503 3.056561 29.828142 -2.458615
2012-03-22 09:20:43 51°19.279 2°57.311 6.7662 3.054803 29.809989 -2.458615
2012-03-22 09:21:43 51°19.358 2°57.576 6.7719 3.053044 29.781319 -2.458615
2012-03-22 09:22:43 51°19.451 2°57.828 6.7568 3.05201 29.766128 -2.458615
2012-03-22 09:23:43 51°19.544 2°58.083 6.7514 3.050252 29.763341 -2.458615
2012-03-22 09:24:43 51°19.636 2°58.34 6.7579 3.050562 29.769114 -2.458615
2012-03-22 09:25:43 51°19.732 2°58.596 6.7325 3.050872 29.768415 -2.458615
2012-03-22 09:26:43 51°19.81 2°58.868 6.7263 3.050045 29.777292 -2.458615
2012-03-22 09:27:43 51°19.869 2°59.156 6.766 3.049942 29.776986 -2.458615
2012-03-22 09:28:43 51°19.929 2°59.444 6.7505 3.051493 29.773489 -2.458615
2012-03-22 09:29:43 51°19.976 2°59.74 6.7694 3.051907 29.774715 -2.458615
2012-03-22 09:30:43 51°20.041 3°0.028 6.7622 3.051493 29.766212 -2.458615
2012-03-22 09:31:43 51°20.108 3°0.314 6.7604 3.051493 29.76702 -2.458615
2012-03-22 09:32:44 51°20.165 3°0.613 6.7595 3.053355 29.786282 -2.458615
2012-03-22 09:33:43 51°20.217 3°0.903 6.7821 3.056665 29.830068 -2.458615
2012-03-22 09:34:43 51°20.282 3°1.191 6.7679 3.05894 29.839209 -2.458615
2012-03-22 09:35:43 51°20.336 3°1.486 6.7526 3.059354 29.849342 -2.458615
2012-03-22 09:36:43 51°20.404 3°1.771 6.7532 3.058734 29.854002 -2.458615
2012-03-22 09:37:43 51°20.506 3°2.031 6.74 3.060182 29.872869 -2.458615
2012-03-22 09:38:43 51°20.608 3°2.29 6.7413 3.060285 29.877232 -2.458615
2012-03-22 09:39:43 51°20.713 3°2.549 6.721 3.06163 29.897428 -2.458615
2012-03-22 09:40:43 51°20.808 3°2.82 6.7104 3.063699 29.935217 -2.458615
2012-03-22 09:41:43 51°20.902 3°3.093 6.6981 3.067319 29.985734 -2.458615
2012-03-22 09:42:43 51°21 3°3.363 6.7216 3.071147 30.02464 -2.458615
2012-03-22 09:43:43 51°21.089 3°3.642 6.7128 3.078387 30.09471 -2.458615
2012-03-22 09:44:43 51°21.185 3°3.915 6.708 3.080456 30.123623 -2.458615
2012-03-22 09:45:43 51°21.284 3°4.19 6.6792 3.08087 30.137115 -2.458615
2012-03-22 09:46:43 51°21.389 3°4.461 6.6725 3.079422 30.141965 -2.458615
2012-03-22 09:47:43 51°21.508 3°4.711 6.7715 3.079422 30.125555 -2.458615
2012-03-22 09:48:43 51°21.611 3°4.973 6.8033 3.077145 30.03555 -2.458615
2012-03-22 09:49:43 51°21.703 3°5.249 6.8546 3.081386 30.047049 -2.458615
2012-03-22 09:50:43 51°21.805 3°5.515 6.8676 3.089868 30.109105 -2.458615
2012-03-22 09:51:43 51°21.876 3°5.808 6.8263 3.096074 30.137607 -2.458615
2012-03-22 09:52:43 51°21.942 3°6.106 6.8194 3.099592 30.231084 -2.458615
2012-03-22 09:53:43 51°21.971 3°6.421 6.8115 3.098144 30.22366 -2.458615
2012-03-22 09:54:43 51°21.994 3°6.739 6.8563 3.095455 30.20448 -2.458615
2012-03-22 09:55:43 51°22.029 3°7.053 6.834 3.092971 30.137641 -2.458615
2012-03-22 09:56:43 51°22.067 3°7.364 6.8486 3.08573 30.071866 -2.458615
2012-03-22 09:57:43 51°22.099 3°7.676 6.8308 3.078903 29.972336 -2.458615
2012-03-22 09:58:43 51°22.126 3°7.99 6.8449 3.073421 29.936042 -2.458615
2012-03-22 09:59:43 51°22.152 3°8.307 6.8451 3.071456 29.92218 -2.458615
2012-03-22 10:00:43 51°22.17 3°8.628 6.9217 3.074145 29.911423 -2.458615
2012-03-22 10:01:43 51°22.263 3°8.91 6.9876 3.079523 29.943349 -2.458615
2012-03-22 10:02:43 51°22.37 3°9.184 6.9139 3.078075 29.919696 -2.458615
2012-03-22 10:03:43 51°22.467 3°9.475 6.9583 3.070834 29.819345 -2.458615
2012-03-22 10:04:43 51°22.573 3°9.757 6.9771 3.061318 29.711617 -2.458615
2012-03-22 10:05:43 51°22.655 3°10.064 6.977 3.056456 29.642674 -2.458615
2012-03-22 10:06:43 51°22.712 3°10.383 7.0324 3.051491 29.561556 -2.458615
2012-03-22 10:07:43 51°22.725 3°10.716 7.0107 3.042492 29.452549 -2.458615
2012-03-22 10:08:43 51°22.723 3°11.049 6.9744 3.028735 29.314946 -2.458615
2012-03-22 10:09:43 51°22.741 3°11.382 6.9229 3.022633 29.269429 -2.458615
2012-03-22 10:10:43 51°22.752 3°11.718 6.9456 3.018393 29.265118 -2.458615
2012-03-22 10:11:43 51°22.727 3°12.053 6.9321 3.013946 29.22539 -2.458615
2012-03-22 10:12:43 51°22.687 3°12.386 6.9305 3.010843 29.174035 -2.458615
2012-03-22 10:13:43 51°22.647 3°12.723 6.9318 3.010015 29.173057 -2.458615
2012-03-22 10:14:43 51°22.599 3°13 6.9665 3.006809 29.1474 -2.458615
2012-03-22 10:15:43 51°22.59 3°13.152 7.1102 3.007739 29.095279 -2.458615
2012-03-22 10:16:43 51°22.593 3°13.211 7.0745 3.016012 29.096655 -2.458615
2012-03-22 10:17:43 51°22.589 3°13.221 6.8608 3.015806 29.16497 -2.458615
2012-03-22 10:18:44 51°22.585 3°13.227 6.8322 3.009809 29.234801 -2.458615
2012-03-22 10:19:43 51°22.579 3°13.232 6.8588 3.008775 29.230828 -2.458615
2012-03-22 10:20:43 51°22.574 3°13.236 6.8654 3.013533 29.273953 -2.458615
2012-03-22 10:21:43 51°22.595 3°13.259 6.8582 3.009499 29.237013 -2.458615
2012-03-22 10:22:43 51°22.66 3°13.228 6.9973 3.01105 29.217269 -2.458615
2012-03-22 10:23:43 51°22.817 3°13.213 6.9589 3.007222 29.098381 -2.458615
2012-03-22 10:24:43 51°23.02 3°13.204 6.9409 2.995743 29.013287 -2.458615
2012-03-22 10:25:43 51°23.215 3°13.201 6.9207 2.985814 28.909479 -2.458615
2012-03-22 10:26:43 51°23.393 3°13.216 6.9926 2.989951 28.967001 -2.458615
2012-03-22 10:27:43 51°23.565 3°13.33 6.8956 2.99688 28.988672 -2.458615
2012-03-22 10:28:43 51°23.762 3°13.444 7.0107 3.010739 29.198155 -2.458615
2012-03-22 10:29:43 51°23.967 3°13.515 6.9154 3.026977 29.319851 -2.458615
2012-03-22 10:30:43 51°24.172 3°13.501 7.0338 3.034528 29.437973 -2.458615
2012-03-22 10:31:43 51°24.331 3°13.326 6.9763 3.041044 29.460079 -2.458615
2012-03-22 10:32:43 51°24.428 3°13.043 6.835 3.064731 29.752248 -2.458615
2012-03-22 10:33:43 51°24.533 3°12.761 6.8536 3.081179 30.022836 -2.458615
2012-03-22 10:34:43 51°24.551 3°12.446 6.806 3.087696 30.066156 -2.458615
2012-03-22 10:35:43 51°24.584 3°12.129 6.7808 3.146662 30.754266 -2.458615
2012-03-22 10:36:43 51°24.614 3°11.81 6.8126 3.152973 30.837577 -2.458615
2012-03-22 10:37:43 51°24.621 3°11.49 6.8451 3.16425 30.933618 -2.458615
2012-03-22 10:38:43 51°24.634 3°11.172 6.861 3.173044 31.002714 -2.458615
2012-03-22 10:39:43 51°24.644 3°10.854 6.8775 3.177286 31.037657 -2.458615
2012-03-22 10:40:43 51°24.646 3°10.536 6.8751 3.179872 31.049646 -2.458615
2012-03-22 10:41:43 51°24.673 3°10.221 6.8796 3.181114 31.064747 -2.458615
2012-03-22 10:42:43 51°24.696 3°9.905 6.8766 3.181217 31.059979 -2.458615
2012-03-22 10:43:43 51°24.723 3°9.59 6.8764 3.18132 31.06362 -2.458615
2012-03-22 10:44:43 51°24.748 3°9.276 6.8725 3.179355 31.045736 -2.458615
2012-03-22 10:45:43 51°24.75 3°8.956 6.8662 3.179872 31.056372 -2.458615
2012-03-22 10:46:43 51°24.76 3°8.637 6.85 3.182148 31.086871 -2.458615
2012-03-22 10:47:43 51°24.826 3°8.341 6.833 3.18577 31.139525 -2.458615
2012-03-22 10:48:43 51°24.899 3°8.052 6.8288 3.194254 31.245734 -2.458615
2012-03-22 10:49:43 51°24.977 3°7.779 6.8324 3.197358 31.281894 -2.458615
2012-03-22 10:50:43 51°25.154 3°7.726 6.8421 3.198082 31.279562 -2.458615
2012-03-22 10:51:43 51°25.343 3°7.727 6.861 3.195599 31.245053 -2.458615
2012-03-22 10:52:43 51°25.537 3°7.728 6.8583 3.197047 31.252266 -2.458615
2012-03-22 10:53:43 51°25.724 3°7.716 6.8478 3.199634 31.27772 -2.458615
2012-03-22 10:54:43 51°25.888 3°7.722 6.8271 3.20191 31.319323 -2.458615
2012-03-22 10:55:43 51°26.043 3°7.801 6.8091 3.202635 31.341607 -2.458615
2012-03-22 10:56:43 51°26.187 3°7.934 6.7877 3.204497 31.379656 -2.458615
2012-03-22 10:57:43 51°26.32 3°8.097 6.7643 3.207188 31.42844 -2.458615
2012-03-22 10:58:43 51°26.401 3°8.231 6.7371 3.209982 31.479269 -2.458615
2012-03-22 10:59:43 51°26.43 3°8.34 6.7067 3.211017 31.519625 -2.458615
2012-03-22 11:00:43 51°26.428 3°8.388 6.6928 3.211431 31.546434 -2.458615
2012-03-22 11:01:46 51°26.412 3°8.394 6.6716 3.211741 31.564417 -2.458615
2012-03-22 11:02:44 51°26.397 3°8.402 6.6781 3.210086 31.558434 -2.458615
2012-03-22 11:03:43 51°26.382 3°8.412 6.6841 3.209983 31.554728 -2.458615
2012-03-22 11:04:43 51°26.367 3°8.422 6.692 3.209776 31.549037 -2.458615
2012-03-22 11:05:43 51°26.353 3°8.435 6.6923 3.209672 31.53932 -2.458615
2012-03-22 11:06:43 51°26.339 3°8.45 6.7039 3.209465 31.53621 -2.458615
2012-03-22 11:07:43 51°26.326 3°8.468 6.7158 3.210189 31.536362 -2.458615
2012-03-22 11:08:43 51°26.306 3°8.491 6.7194 3.21081 31.533672 -2.458615
2012-03-22 11:09:43 51°26.252 3°8.519 6.7095 3.210913 31.531365 -2.458615
2012-03-22 11:10:43 51°26.201 3°8.467 6.7455 3.210396 31.529171 -2.458615
2012-03-22 11:11:43 51°26.199 3°8.338 6.772 3.210603 31.503131 -2.458615
2012-03-22 11:12:43 51°26.259 3°8.133 6.7573 3.209982 31.475848 -2.458615
2012-03-22 11:13:43 51°26.347 3°7.873 6.6631 3.209465 31.489908 -2.458615
2012-03-22 11:14:43 51°26.443 3°7.614 6.6221 3.213604 31.609654 -2.458615
2012-03-22 11:15:43 51°26.56 3°7.375 6.6045 3.213708 31.643559 -2.458615
2012-03-22 11:16:43 51°26.681 3°7.136 6.5848 3.213812 31.662834 -2.458615
2012-03-22 11:17:43 51°26.803 3°6.897 6.57 3.214122 31.678331 -2.458615
2012-03-22 11:18:43 51°26.926 3°6.659 6.5215 3.214743 31.709363 -2.458615
2012-03-22 11:19:43 51°27.048 3°6.418 6.4842 3.215468 31.757219 -2.458615
2012-03-22 11:20:43 51°27.169 3°6.176 6.4793 3.216607 31.799272 -2.458615
2012-03-22 11:21:43 51°27.293 3°5.935 6.4842 3.220538 31.843199 -2.458615
2012-03-22 11:22:43 51°27.416 3°5.693 6.4869 3.220538 31.839708 -2.458615
2012-03-22 11:23:43 51°27.54 3°5.45 6.5379 3.219814 31.823928 -2.458615
2012-03-22 11:24:43 51°27.664 3°5.209 6.5768 3.218572 31.766822 -2.458615
2012-03-22 11:25:43 51°27.789 3°4.971 6.5801 3.217433 31.730944 -2.458615
2012-03-22 11:26:43 51°27.915 3°4.734 6.5508 3.21464 31.714303 -2.458615
2012-03-22 11:27:43 51°28.042 3°4.496 6.5347 3.21226 31.687437 -2.458615
2012-03-22 11:28:43 51°28.172 3°4.257 6.5121 3.211536 31.669132 -2.458615
2012-03-22 11:29:43 51°28.249 3°3.981 6.5565 3.208742 31.665462 -2.458615
2012-03-22 11:30:43 51°28.282 3°3.673 6.4857 3.208018 31.682687 -2.458615
2012-03-22 11:31:43 51°28.298 3°3.457 6.5365 3.204397 31.650886 -2.458615
2012-03-22 11:32:43 51°28.254 3°3.407 6.4604 3.208949 31.687665 -2.458615
2012-03-22 11:33:43 51°28.233 3°3.43 6.4536 3.201811 31.676397 -2.458615
2012-03-22 11:34:43 51°28.233 3°3.458 6.464 3.199949 31.659471 -2.458615
2012-03-22 11:35:43 51°28.233 3°3.486 6.475 3.200362 31.646634 -2.458615
2012-03-22 11:36:43 51°28.233 3°3.514 6.4568 3.201087 31.653696 -2.458615
2012-03-22 11:37:43 51°28.233 3°3.542 6.4723 3.199638 31.648253 -2.458615
2012-03-22 11:38:43 51°28.206 3°3.577 6.4201 3.20088 31.64709 -2.458615
2012-03-22 11:39:43 51°28.17 3°3.547 6.4474 3.197362 31.651986 -2.458615
2012-03-22 11:40:43 51°28.15 3°3.43 6.4461 3.197983 31.633595 -2.458615
2012-03-22 11:41:43 51°28.122 3°3.206 6.4309 3.19819 31.629785 -2.458615
2012-03-22 11:42:43 51°28.089 3°2.929 6.5203 3.197776 31.628724 -2.458615
2012-03-22 11:43:43 51°28.054 3°2.631 6.5285 3.203363 31.654311 -2.458615
2012-03-22 11:44:43 51°28.017 3°2.327 6.5016 3.205018 31.653341 -2.458615
2012-03-22 11:45:43 51°27.983 3°2.021 6.4732 3.202431 31.645856 -2.458615
2012-03-22 11:46:43 51°27.948 3°1.717 6.464 3.200776 31.639883 -2.458615
2012-03-22 11:47:43 51°27.917 3°1.413 6.4142 3.200672 31.633546 -2.458615
2012-03-22 11:48:43 51°27.885 3°1.109 6.422 3.199328 31.653539 -2.458615
2012-03-22 11:49:43 51°27.852 3°0.805 6.4178 3.199742 31.674592 -2.458615
2012-03-22 11:50:43 51°27.822 3°0.498 6.3795 3.200673 31.676969 -2.458615
2012-03-22 11:51:43 51°27.791 3°0.189 6.4036 3.20026 31.712488 -2.458615
2012-03-22 11:52:43 51°27.76 2°59.879 6.397 3.202639 31.719416 -2.458615
2012-03-22 11:53:43 51°27.729 2°59.568 6.3904 3.20357 31.740095 -2.458615
2012-03-22 11:54:43 51°27.696 2°59.259 6.3593 3.205122 31.763234 -2.458615
2012-03-22 11:55:43 51°27.663 2°58.95 6.3406 3.204295 31.777739 -2.458615
2012-03-22 11:56:43 51°27.63 2°58.643 6.3574 3.204295 31.793486 -2.458615
2012-03-22 11:57:43 51°27.598 2°58.337 6.3457 3.20533 31.803104 -2.458615
2012-03-22 11:58:43 51°27.567 2°58.03 6.3539 3.20564 31.804763 -2.458615
2012-03-22 11:59:43 51°27.528 2°57.725 6.4124 3.206157 31.802569 -2.458615
2012-03-22 12:00:43 51°27.465 2°57.431 6.382 3.210503 31.798684 -2.458615
2012-03-22 12:01:43 51°27.4 2°57.138 6.3646 3.211124 31.834353 -2.458615
2012-03-22 12:02:43 51°27.337 2°56.847 6.3532 3.210917 31.862748 -2.458615
2012-03-22 12:03:43 51°27.281 2°56.555 6.3741 3.208744 31.832736 -2.458615
2012-03-22 12:04:43 51°27.221 2°56.262 6.4036 3.208641 31.811464 -2.458615
2012-03-22 12:05:43 51°27.16 2°55.965 6.4172 3.209158 31.793537 -2.458615
2012-03-22 12:06:43 51°27.101 2°55.668 6.4343 3.209571 31.798952 -2.458615
2012-03-22 12:07:43 51°27.037 2°55.374 6.3895 3.212054 31.782534 -2.458615
2012-03-22 12:08:43 51°26.976 2°55.083 6.3196 3.214435 31.872461 -2.458615
2012-03-22 12:09:43 51°26.874 2°54.837 6.3652 3.210089 31.860667 -2.458615
2012-03-22 12:10:43 51°26.755 2°54.603 6.3652 3.20771 31.826624 -2.458615
2012-03-22 12:11:43 51°26.632 2°54.381 6.3842 3.206571 31.807115 -2.458615
2012-03-22 12:12:43 51°26.514 2°54.144 6.4236 3.205847 31.770309 -2.458615
2012-03-22 12:13:43 51°26.458 2°53.859 6.4397 3.207502 31.753562 -2.458615
2012-03-22 12:14:43 51°26.431 2°53.546 6.4839 3.207709 31.741015 -2.458615
2012-03-22 12:15:43 51°26.405 2°53.234 6.4113 3.211847 31.760223 -2.458615
2012-03-22 12:16:43 51°26.385 2°52.922 6.4422 3.210296 31.803403 -2.458615
2012-03-22 12:17:43 51°26.362 2°52.611 6.5215 3.20626 31.713828 -2.458615
2012-03-22 12:18:43 51°26.339 2°52.3 6.517 3.209467 31.695058 -2.458615
2012-03-22 12:19:43 51°26.319 2°51.99 6.5327 3.211019 31.708559 -2.458615
2012-03-22 12:20:43 51°26.293 2°51.687 6.2968 3.21433 31.740425 -2.458615
2012-03-22 12:21:43 51°26.263 2°51.387 6.2714 3.235027 32.184558 -2.458615
2012-03-22 12:22:43 51°26.239 2°51.087 6.2685 3.234096 32.185835 -2.458615
2012-03-22 12:23:43 51°26.21 2°50.79 6.259 3.235234 32.200162 -2.458615
2012-03-22 12:24:43 51°26.177 2°50.494 6.3548 3.236682 32.204583 -2.458615
2012-03-22 12:25:43 51°26.149 2°50.196 6.3404 3.244753 32.213604 -2.458615
2012-03-22 12:26:43 51°26.125 2°49.898 6.2878 3.245063 32.24008 -2.458615
2012-03-22 12:27:43 51°26.099 2°49.602 6.3145 3.243925 32.271978 -2.458615
2012-03-22 12:28:43 51°26.074 2°49.308 6.3188 3.245581 32.275989 -2.458615
2012-03-22 12:29:43 51°26.058 2°49.09 6.3315 3.25003 32.32324 -2.458615
2012-03-22 12:30:43 51°26.048 2°48.929 6.3438 3.251996 32.332434 -2.458615
2012-03-22 12:31:43 51°26.049 2°48.827 6.3265 3.254894 32.360791 -2.458615
2012-03-22 12:32:43 51°26.047 2°48.725 6.3369 3.255515 32.373873 -2.458615
2012-03-22 12:33:43 51°26.038 2°48.6 6.4124 3.257894 32.36711 -2.458615
2012-03-22 12:34:43 51°26.028 2°48.527 6.4492 3.262861 32.378143 -2.458615
2012-03-22 12:35:43 51°26.031 2°48.549 6.4374 3.265137 32.377379 -2.458615
2012-03-22 12:36:43 51°26.042 2°48.579 6.4818 3.265758 32.389538 -2.458615
2012-03-22 12:37:43 51°26.052 2°48.612 6.5091 3.267931 32.366322 -2.458615
2012-03-22 12:38:43 51°26.063 2°48.644 6.4669 3.271035 32.389745 -2.458615
2012-03-22 12:39:43 51°26.074 2°48.676 6.5027 3.269794 32.406316 -2.458615
2012-03-22 12:40:43 51°26.085 2°48.708 6.5286 3.271449 32.384525 -2.458615
2012-03-22 12:41:43 51°26.097 2°48.739 6.5175 3.273518 32.387711 -2.458615
2012-03-22 12:42:43 51°26.097 2°48.777 6.4355 3.273518 32.406345 -2.458615
2012-03-22 12:43:43 51°26.067 2°48.776 6.3655 3.268656 32.443663 -2.458615
2012-03-22 12:44:43 51°25.989 2°48.636 6.3705 3.263999 32.414712 -2.458615
2012-03-22 12:45:43 51°25.879 2°48.431 6.3409 3.265552 32.455004 -2.458615
2012-03-22 12:46:43 51°25.769 2°48.217 6.36 3.263793 32.4526 -2.458615
2012-03-22 12:47:43 51°25.686 2°47.975 6.3644 3.265345 32.453618 -2.458615
2012-03-22 12:48:43 51°25.605 2°47.731 6.4424 3.269794 32.457077 -2.458615
2012-03-22 12:49:43 51°25.519 2°47.489 6.4912 3.275071 32.484794 -2.458615
2012-03-22 12:50:43 51°25.433 2°47.246 6.4491 3.282004 32.51105 -2.458615
2012-03-22 12:51:43 51°25.347 2°47.001 6.3863 3.278279 32.515601 -2.458615
2012-03-22 12:52:43 51°25.258 2°46.76 6.3356 3.270622 32.490295 -2.458615
2012-03-22 12:53:43 51°25.17 2°46.518 6.3233 3.263379 32.449826 -2.458615
2012-03-22 12:54:43 51°25.085 2°46.272 6.3173 3.261827 32.444337 -2.458615
2012-03-22 12:55:43 51°24.999 2°46.025 6.3158 3.25955 32.422816 -2.458615
2012-03-22 12:56:43 51°24.914 2°45.778 6.2995 3.257895 32.415284 -2.458615
2012-03-22 12:57:43 51°24.828 2°45.529 6.3098 3.255825 32.401397 -2.458615
2012-03-22 12:58:43 51°24.739 2°45.282 6.3106 3.256136 32.394103 -2.458615
2012-03-22 12:59:43 51°24.651 2°45.033 6.3159 3.258516 32.41945 -2.458615
2012-03-22 13:00:43 51°24.572 2°44.775 6.3253 3.260689 32.437152 -2.458615
2012-03-22 13:01:43 51°24.485 2°44.525 6.3318 3.262551 32.456793 -2.458615
2012-03-22 13:02:43 51°24.396 2°44.277 6.3303 3.26638 32.488267 -2.458615
2012-03-22 13:03:43 51°24.308 2°44.031 6.3655 3.269898 32.525264 -2.458615
2012-03-22 13:04:43 51°24.225 2°43.784 6.5503 3.278073 32.590274 -2.458615
2012-03-22 13:05:43 51°24.143 2°43.542 6.5126 3.267309 32.305483 -2.458615
2012-03-22 13:06:43 51°24.065 2°43.295 6.5437 3.269793 32.35395 -2.458615
2012-03-22 13:07:43 51°24.001 2°43.042 6.5175 3.270207 32.346973 -2.458615
2012-03-22 13:08:43 51°23.96 2°42.767 6.5204 3.271035 32.376435 -2.458615
2012-03-22 13:09:43 51°23.916 2°42.495 6.5724 3.270414 32.351899 -2.458615
2012-03-22 13:10:43 51°23.871 2°42.221 6.6625 3.270931 32.314224 -2.458615
2012-03-22 13:11:43 51°23.828 2°41.946 6.898 3.254268 31.969372 -2.458615
2012-03-22 13:12:43 51°23.784 2°41.668 6.8303 3.251577 31.835394 -2.458615
2012-03-22 13:13:43 51°23.741 2°41.388 6.8501 3.262443 31.997486 -2.458615
2012-03-22 13:14:43 51°23.696 2°41.109 6.6496 3.278379 32.225827 -2.458615
2012-03-22 13:15:43 51°23.651 2°40.829 6.6499 3.283658 32.381928 -2.458615
2012-03-22 13:16:43 51°23.601 2°40.551 6.652 3.285107 32.396882 -2.458615
2012-03-22 13:17:43 51°23.54 2°40.28 6.6613 3.291627 32.476134 -2.458615
2012-03-22 13:18:43 51°23.464 2°40.021 6.7 3.297111 32.513957 -2.458615
2012-03-22 13:19:43 51°23.37 2°39.78 6.7276 3.305804 32.575272 -2.458615
2012-03-22 13:20:43 51°23.286 2°39.529 6.649 3.314393 32.651358 -2.458615
2012-03-22 13:21:43 51°23.2 2°39.286 6.6562 3.327641 32.867684 -2.458615
2012-03-22 13:22:43 51°23.099 2°39.042 6.6252 3.334472 32.955113 -2.458615
2012-03-22 13:23:43 51°23.003 2°38.79 6.5565 3.344615 33.087102 -2.458615
2012-03-22 13:24:43 51°22.882 2°38.568 6.5649 3.34534 33.143035 -2.458615
2012-03-22 13:25:43 51°22.762 2°38.346 6.6186 3.347617 33.140865 -2.458615
2012-03-22 13:26:43 51°22.637 2°38.131 6.7426 3.354861 33.164253 -2.458615
2012-03-22 13:27:43 51°22.525 2°37.907 6.8443 3.362208 33.124689 -2.458615
2012-03-22 13:28:43 51°22.388 2°37.729 6.8528 3.358688 33.032369 -2.458615
2012-03-22 13:29:43 51°22.243 2°37.56 6.7718 3.352168 32.95229 -2.458615
2012-03-22 13:30:43 51°22.11 2°37.369 6.7292 3.342129 32.909765 -2.458615
2012-03-22 13:31:43 51°21.964 2°37.199 6.6992 3.334471 32.88153 -2.458615
2012-03-22 13:32:43 51°21.831 2°37.007 6.7313 3.329917 32.83262 -2.458615
2012-03-22 13:33:43 51°21.692 2°36.823 6.678 3.331677 32.849179 -2.458615
2012-03-22 13:34:43 51°21.563 2°36.619 6.6325 3.33116 32.889188 -2.458615
2012-03-22 13:35:43 51°21.445 2°36.397 6.6155 3.327641 32.873962 -2.458615
2012-03-22 13:36:43 51°21.319 2°36.185 6.6119 3.325261 32.872999 -2.458615
2012-03-22 13:37:43 51°21.224 2°35.937 6.6186 3.323709 32.858671 -2.458615
2012-03-22 13:38:43 51°21.16 2°35.662 6.6201 3.321535 32.828566 -2.458615
2012-03-22 13:39:43 51°21.093 2°35.388 6.6254 3.320914 32.8128 -2.458615
2012-03-22 13:40:43 51°21.017 2°35.122 6.665 3.321225 32.798296 -2.458615
2012-03-22 13:41:43 51°20.956 2°34.845 6.6867 3.323605 32.798419 -2.458615
2012-03-22 13:42:43 51°20.888 2°34.57 6.6599 3.327641 32.832753 -2.458615
2012-03-22 13:43:43 51°20.839 2°34.281 6.6881 3.327641 32.848865 -2.458615
2012-03-22 13:44:43 51°20.802 2°33.982 6.7156 3.33354 32.882085 -2.458615
2012-03-22 13:45:43 51°20.749 2°33.691 6.7333 3.339853 32.928748 -2.458615
2012-03-22 13:46:43 51°20.692 2°33.399 6.7246 3.343579 32.95246 -2.458615
2012-03-22 13:47:43 51°20.646 2°33.097 6.7312 3.343786 32.971764 -2.458615
2012-03-22 13:48:43 51°20.584 2°32.802 6.7466 3.346787 32.99472 -2.458615
2012-03-22 13:49:43 51°20.54 2°32.498 6.7647 3.350202 33.014113 -2.458615
2012-03-22 13:50:43 51°20.494 2°32.195 6.7473 3.35517 33.06124 -2.458615
2012-03-22 13:51:43 51°20.432 2°31.901 6.7634 3.358586 33.106684 -2.458615
2012-03-22 13:52:43 51°20.379 2°31.605 6.7662 3.361691 33.128935 -2.458615
2012-03-22 13:53:43 51°20.333 2°31.307 6.78 3.362208 33.12829 -2.458615
2012-03-22 13:54:43 51°20.269 2°31.021 6.7969 3.363036 33.128339 -2.458615
2012-03-22 13:55:43 51°20.211 2°30.734 6.8039 3.364899 33.129801 -2.458615
2012-03-22 13:56:43 51°20.171 2°30.482 6.8102 3.367072 33.147248 -2.458615
2012-03-22 13:57:43 51°20.119 2°30.255 6.8102 3.3679 33.155393 -2.458615
2012-03-22 13:58:43 51°20.075 2°30.062 6.8142 3.370177 33.178468 -2.458615
2012-03-22 13:59:43 51°20.024 2°30.003 6.8244 3.371419 33.189334 -2.458615
2012-03-22 14:00:43 51°19.993 2°29.982 6.8125 3.373075 33.200217 -2.458615
2012-03-22 14:01:43 51°19.994 2°30.011 6.8341 3.373179 33.206754 -2.458615
2012-03-22 14:02:43 51°20.001 2°30.043 6.8252 3.374938 33.208853 -2.458615
2012-03-22 14:03:43 51°20.007 2°30.073 6.8542 3.375145 33.210212 -2.458615
2012-03-22 14:04:43 51°20.016 2°30.1 6.829 3.377319 33.215928 -2.458615
2012-03-22 14:05:43 51°20.024 2°30.129 6.8406 3.375663 33.219468 -2.458615
2012-03-22 14:06:43 51°20.014 2°30.178 6.8346 3.376698 33.215453 -2.458615
2012-03-22 14:07:43 51°19.96 2°30.315 6.8372 3.37618 33.226021 -2.458615
2012-03-22 14:08:43 51°19.863 2°30.583 6.8468 3.376905 33.230328 -2.458615
2012-03-22 14:09:43 51°19.763 2°30.896 6.8246 3.378975 33.242116 -2.458615
2012-03-22 14:10:43 51°19.623 2°31.152 6.8215 3.37587 33.227137 -2.458615
2012-03-22 14:11:43 51°19.484 2°31.406 6.7937 3.374317 33.2228 -2.458615
2012-03-22 14:12:43 51°19.349 2°31.666 6.7871 3.370177 33.190181 -2.458615
2012-03-22 14:13:43 51°19.217 2°31.925 6.7795 3.364795 33.14307 -2.458615
2012-03-22 14:14:43 51°19.082 2°32.176 6.7921 3.358585 33.079698 -2.458615
2012-03-22 14:15:43 51°18.96 2°32.447 6.7889 3.357136 33.049497 -2.458615
2012-03-22 14:16:43 51°18.821 2°32.701 6.8919 3.35517 33.027122 -2.458615
2012-03-22 14:17:43 51°18.699 2°32.973 7.1329 3.365932 32.974614 -2.458615
2012-03-22 14:18:43 51°18.564 2°33.224 7.0177 3.382595 33.048745 -2.458615
2012-03-22 14:19:43 51°18.433 2°33.479 6.9342 3.373901 33.031827 -2.458615
2012-03-22 14:20:43 51°18.304 2°33.74 6.9027 3.363138 32.991458 -2.458615
2012-03-22 14:21:43 51°18.163 2°33.988 6.8311 3.353202 32.917165 -2.458615
2012-03-22 14:22:43 51°18.032 2°34.252 6.8248 3.340576 32.842829 -2.458615
2012-03-22 14:23:43 51°17.902 2°34.516 6.8472 3.337575 32.803869 -2.458615
2012-03-22 14:24:43 51°17.765 2°34.771 6.8688 3.340059 32.815818 -2.458615
2012-03-22 14:25:43 51°17.624 2°35.022 6.874 3.345854 32.863844 -2.458615
2012-03-22 14:26:43 51°17.481 2°35.269 6.862 3.349063 32.89524 -2.458615
2012-03-22 14:27:43 51°17.341 2°35.518 6.8583 3.349063 32.900588 -2.458615
2012-03-22 14:28:43 51°17.21 2°35.784 6.8601 3.348545 32.896732 -2.458615
2012-03-22 14:29:43 51°17.08 2°36.05 6.9096 3.347303 32.881414 -2.458615
2012-03-22 14:30:43 51°16.936 2°36.283 6.8702 3.337056 32.725447 -2.458615
2012-03-22 14:31:43 51°16.787 2°36.517 6.8747 3.328881 32.678976 -2.458615
2012-03-22 14:32:43 51°16.683 2°36.727 6.916 3.32826 32.655404 -2.458615
2012-03-22 14:33:43 51°16.614 2°36.819 6.9615 3.333227 32.674073 -2.458615
2012-03-22 14:34:43 51°16.595 2°36.847 7.0307 3.338401 32.687902 -2.458615
2012-03-22 14:35:43 51°16.602 2°36.863 7.1271 3.346266 32.712378 -2.458615
2012-03-22 14:36:43 51°16.611 2°36.876 7.0903 3.354856 32.735842 -2.458615
2012-03-22 14:37:43 51°16.62 2°36.885 7.0811 3.354546 32.746573 -2.458615
2012-03-22 14:38:43 51°16.629 2°36.892 7.0846 3.353511 32.747701 -2.458615
2012-03-22 14:39:43 51°16.64 2°36.898 7.0667 3.35289 32.734805 -2.458615
2012-03-22 14:40:43 51°16.651 2°36.904 7.0561 3.351855 32.737693 -2.458615
2012-03-22 14:41:43 51°16.662 2°36.909 7.0456 3.350303 32.733212 -2.458615
2012-03-22 14:42:43 51°16.673 2°36.914 7.0477 3.348957 32.729209 -2.458615
2012-03-22 14:43:43 51°16.683 2°36.919 7.0425 3.348336 32.722477 -2.458615
2012-03-22 14:44:43 51°16.642 2°36.944 7.1126 3.347922 32.719752 -2.458615
2012-03-22 14:45:43 51°16.511 2°36.985 7.1822 3.361169 32.761025 -2.458615
2012-03-22 14:46:43 51°16.337 2°36.997 7.1707 3.371105 32.843797 -2.458615
2012-03-22 14:47:43 51°16.144 2°37.033 7.1158 3.362307 32.763658 -2.458615
2012-03-22 14:48:43 51°15.95 2°37.086 7.0327 3.352476 32.717115 -2.458615
2012-03-22 14:49:43 51°15.757 2°37.144 7.0146 3.342333 32.669734 -2.458615
2012-03-22 14:50:43 51°15.559 2°37.176 7.1115 3.340574 32.662986 -2.458615
2012-03-22 14:51:43 51°15.36 2°37.169 7.2007 3.362928 32.765973 -2.458615
2012-03-22 14:52:43 51°15.158 2°37.178 7.0625 3.364274 32.792842 -2.458615
2012-03-22 14:53:43 51°14.959 2°37.239 7.0775 3.349578 32.712143 -2.458615
2012-03-22 14:54:43 51°14.758 2°37.273 7.0631 3.347094 32.678197 -2.458615
2012-03-22 14:55:43 51°14.556 2°37.295 7.0578 3.348025 32.698847 -2.458615
2012-03-22 14:56:43 51°14.357 2°37.351 7.0913 3.351855 32.740338 -2.458615
2012-03-22 14:57:43 51°14.154 2°37.395 7.1258 3.357237 32.770426 -2.458615
2012-03-22 14:58:43 51°13.949 2°37.391 7.1815 3.362618 32.789903 -2.458615
2012-03-22 14:59:43 51°13.742 2°37.361 7.2727 3.374727 32.875022 -2.458615
2012-03-22 15:00:43 51°13.539 2°37.317 7.2608 3.38725 32.924769 -2.458615
2012-03-22 15:01:43 51°13.341 2°37.278 7.2608 3.391184 32.98485 -2.458615
2012-03-22 15:02:43 51°13.138 2°37.261 7.2866 3.393357 32.997717 -2.458615
2012-03-22 15:03:43 51°12.934 2°37.266 7.2979 3.395531 33.003515 -2.458615
2012-03-22 15:04:43 51°12.729 2°37.265 7.3002 3.397497 33.01502 -2.458615
2012-03-22 15:05:43 51°12.525 2°37.217 7.3095 3.400292 33.039865 -2.458615
2012-03-22 15:06:43 51°12.323 2°37.173 7.4893 3.402155 33.051126 -2.458615
2012-03-22 15:07:43 51°12.12 2°37.145 7.5069 3.407122 32.935769 -2.458615
2012-03-22 15:08:43 51°11.917 2°37.11 7.5146 3.403395 32.882684 -2.458615
2012-03-22 15:09:43 51°11.712 2°37.061 7.5231 3.405465 32.903137 -2.458615
2012-03-22 15:10:43 51°11.51 2°36.977 7.5664 3.415092 32.987123 -2.458615
2012-03-22 15:11:43 51°11.31 2°36.891 7.5989 3.423579 33.038695 -2.458615
2012-03-22 15:12:43 51°11.109 2°36.829 7.6038 3.431964 33.109235 -2.458615
2012-03-22 15:13:43 51°10.907 2°36.769 7.5758 3.436932 33.151925 -2.458615
2012-03-22 15:14:43 51°10.71 2°36.69 7.5518 3.439521 33.206908 -2.458615
2012-03-22 15:15:43 51°10.518 2°36.597 7.5565 3.438693 33.214759 -2.458615
2012-03-22 15:16:43 51°10.321 2°36.531 7.6103 3.438693 33.210355 -2.458615
2012-03-22 15:17:43 51°10.144 2°36.66 7.7903 3.44128 33.195859 -2.458615
2012-03-22 15:18:43 51°10.132 2°36.972 7.784 3.435067 32.975694 -2.458615
2012-03-22 15:19:43 51°10.205 2°37.292 7.7749 3.429063 32.902177 -2.458615
2012-03-22 15:20:43 51°10.264 2°37.619 7.7204 3.424612 32.878144 -2.458615
2012-03-22 15:21:43 51°10.343 2°37.934 7.6918 3.416332 32.83317 -2.458615
2012-03-22 15:22:43 51°10.415 2°38.25 7.6601 3.410639 32.788885 -2.458615
2012-03-22 15:23:43 51°10.441 2°38.581 7.5976 3.405257 32.761736 -2.458615
2012-03-22 15:24:43 51°10.472 2°38.911 7.5983 3.39501 32.707674 -2.458615
2012-03-22 15:25:43 51°10.519 2°39.238 7.5766 3.392215 32.678661 -2.458615
2012-03-22 15:26:43 51°10.574 2°39.565 7.566 3.390456 32.671965 -2.458615
2012-03-22 15:27:43 51°10.619 2°39.895 7.6052 3.385798 32.634266 -2.458615
2012-03-22 15:28:43 51°10.711 2°40.2 7.6759 3.389006 32.623628 -2.458615
2012-03-22 15:29:43 51°10.795 2°40.509 7.6926 3.393974 32.626631 -2.458615
2012-03-22 15:30:43 51°10.865 2°40.828 7.6174 3.395837 32.632714 -2.458615
2012-03-22 15:31:43 51°10.94 2°41.143 7.6439 3.390352 32.633684 -2.458615
2012-03-22 15:32:43 51°11.014 2°41.405 7.6422 3.390559 32.617771 -2.458615
2012-03-22 15:33:43 51°11.063 2°41.574 7.6212 3.392422 32.639388 -2.458615
2012-03-22 15:34:43 51°11.07 2°41.735 7.6141 3.397805 32.718494 -2.458615
2012-03-22 15:35:43 51°11.076 2°41.892 7.7162 3.398633 32.729942 -2.458615
2012-03-22 15:36:43 51°11.064 2°41.945 7.7115 3.402565 32.689799 -2.458615
2012-03-22 15:37:43 51°11.054 2°41.95 7.6961 3.401737 32.674933 -2.458615
2012-03-22 15:38:43 51°11.048 2°41.945 7.7358 3.400391 32.670072 -2.458615
2012-03-22 15:39:43 51°11.04 2°41.936 7.7597 3.400494 32.638439 -2.458615
2012-03-22 15:40:43 51°11.034 2°41.928 7.7715 3.401426 32.628575 -2.458615
2012-03-22 15:41:43 51°11.028 2°41.92 7.7896 3.402461 32.62498 -2.458615
2012-03-22 15:42:43 51°11.016 2°41.922 7.7771 3.403496 32.623967 -2.458615
2012-03-22 15:43:43 51°10.997 2°42.033 7.7429 3.401012 32.611278 -2.458615
2012-03-22 15:44:43 51°10.98 2°42.297 7.789 3.395319 32.567002 -2.458615
2012-03-22 15:45:43 51°11.023 2°42.607 7.8436 3.396664 32.547876 -2.458615
2012-03-22 15:46:43 51°11.077 2°42.92 7.7624 3.405151 32.574703 -2.458615
2012-03-22 15:47:43 51°11.116 2°43.233 7.5973 3.38973 32.533237 -2.458615
2012-03-22 15:48:43 51°11.178 2°43.535 7.6241 3.365408 32.391395 -2.458615
2012-03-22 15:49:43 51°11.254 2°43.827 7.657 3.357541 32.274952 -2.458615
2012-03-22 15:50:43 51°11.327 2°44.123 7.6905 3.351745 32.189326 -2.458615
2012-03-22 15:51:43 51°11.374 2°44.433 7.7695 3.351434 32.152035 -2.458615
2012-03-22 15:52:43 51°11.432 2°44.736 7.7239 3.34512 32.029081 -2.458615
2012-03-22 15:53:43 51°11.512 2°45.028 7.7271 3.333529 31.932109 -2.458615
2012-03-22 15:54:43 51°11.588 2°45.323 7.6988 3.32763 31.867781 -2.458615
2012-03-22 15:55:43 51°11.641 2°45.63 7.694 3.32142 31.82787 -2.458615
2012-03-22 15:56:43 51°11.71 2°45.928 7.6848 3.310761 31.721351 -2.458615
2012-03-22 15:57:43 51°11.773 2°46.229 7.7425 3.306828 31.6729 -2.458615
2012-03-22 15:58:43 51°11.844 2°46.525 7.6597 3.305172 31.623616 -2.458615
2012-03-22 15:59:43 51°11.89 2°46.833 7.6509 3.293168 31.559564 -2.458615
2012-03-22 16:00:43 51°11.942 2°47.137 7.652 3.286028 31.496218 -2.458615
2012-03-22 16:01:43 51°12.018 2°47.428 7.7192 3.28313 31.467107 -2.458615
2012-03-22 16:02:43 51°12.083 2°47.726 7.7064 3.283751 31.415595 -2.458615
2012-03-22 16:03:43 51°12.149 2°48.022 7.7556 3.280439 31.403682 -2.458615
2012-03-22 16:04:43 51°12.229 2°48.311 7.7297 3.283337 31.404581 -2.458615
2012-03-22 16:05:43 51°12.329 2°48.583 7.7442 3.278369 31.363519 -2.458615
2012-03-22 16:06:43 51°12.434 2°48.851 7.7658 3.27423 31.303959 -2.458615
2012-03-22 16:07:43 51°12.511 2°49.141 7.781 3.26978 31.237068 -2.458615
2012-03-22 16:08:43 51°12.596 2°49.424 7.7804 3.265537 31.179849 -2.458615
2012-03-22 16:09:43 51°12.707 2°49.682 7.7434 3.258811 31.123465 -2.458615
2012-03-22 16:10:43 51°12.805 2°49.953 7.7556 3.254672 31.095244 -2.458615
2012-03-22 16:11:43 51°12.902 2°50.226 7.787 3.251671 31.049577 -2.458615
2012-03-22 16:12:43 51°12.996 2°50.5 7.7847 3.246601 30.982083 -2.458615
2012-03-22 16:13:43 51°13.088 2°50.775 7.7925 3.242462 30.931011 -2.458615
2012-03-22 16:14:43 51°13.192 2°51.039 7.7917 3.236253 30.864619 -2.458615
2012-03-22 16:15:43 51°13.3 2°51.299 7.7784 3.229734 30.803079 -2.458615
2012-03-22 16:16:43 51°13.386 2°51.58 7.7569 3.226423 30.774596 -2.458615
2012-03-22 16:17:43 51°13.492 2°51.842 7.781 3.222595 30.739024 -2.458615
2012-03-22 16:18:43 51°13.602 2°52.1 7.7749 3.217939 30.691471 -2.458615
2012-03-22 16:19:43 51°13.709 2°52.36 7.7052 3.212972 30.651952 -2.458615
2012-03-22 16:20:43 51°13.801 2°52.633 7.6474 3.203454 30.607902 -2.458615
2012-03-22 16:21:43 51°13.897 2°52.902 7.6794 3.196108 30.568156 -2.458615
2012-03-22 16:22:43 51°14 2°53.164 7.7144 3.189693 30.455973 -2.458615
2012-03-22 16:23:43 51°14.098 2°53.429 7.6745 3.185244 30.409767 -2.458615
2012-03-22 16:24:43 51°14.209 2°53.682 7.7428 3.178209 30.351469 -2.458615
2012-03-22 16:25:43 51°14.317 2°53.935 7.7138 3.168172 30.204758 -2.458615
2012-03-22 16:26:43 51°14.441 2°54.164 7.7039 3.152447 30.039729 -2.458615
2012-03-22 16:27:43 51°14.563 2°54.389 7.6478 3.133618 29.850788 -2.458615
2012-03-22 16:28:43 51°14.607 2°54.675 7.5787 3.125239 29.826261 -2.458615
2012-03-22 16:29:43 51°14.541 2°54.957 7.612 3.118619 29.799736 -2.458615
2012-03-22 16:30:44 51°14.395 2°55.158 7.6227 3.126481 29.853571 -2.458615
2012-03-22 16:31:46 51°14.243 2°55.308 7.6528 3.087481 29.421899 -2.458615
2012-03-22 16:32:46 51°14.104 2°55.425 7.7632 3.053553 29.045632 -2.458615
2012-03-22 16:33:46 51°14.004 2°55.497 7.8044 3.037002 28.778319 -2.458615
2012-03-22 16:34:46 51°13.938 2°55.544 7.8984 3.02821 28.656159 -2.458615
2012-03-22 16:35:46 51°13.879 2°55.587 8.2539 3.0249 28.55479 -2.458615
2012-03-22 16:36:46 51°13.822 2°55.631 8.3332 3.026038 28.5674 -2.458615
2012-03-22 16:37:47 51°13.772 2°55.692 8.3752 3.026762 28.574948 -2.458615
2012-03-22 16:38:46 51°13.73 2°55.763 8.4509 3.027279 28.578093 -2.458615
2012-03-22 16:39:46 51°13.691 2°55.845 8.541 3.027796 28.576743 -2.458615
2012-03-22 16:40:46 51°13.653 2°55.942 8.6664 3.02852 28.581294 -2.458615
2012-03-22 16:41:46 51°13.639 2°56.012 8.75 3.030071 28.586231 -2.458615
2012-03-22 16:42:46 51°13.637 2°56.019 8.8765 3.032967 28.594691 -2.458615